Time;durP1;ratioP1;P1;durP2;ratioP2;P2;SDS_P1;SDS_P2;PMS_P1;PMS_P2;Temp;Humidity;BMP_temperature;BMP_pressure;BME280_temperature;BME280_humidity;BME280_pressure;Samples;Min_cycle;Max_cycle;Signal;HPM_P1;HPM_P2
2022/08/12 00:43:48;;;;;;;6.43;4.57;;;29.60;48.70;;;;;;4918029;29;20935;-73
2022/08/12 00:46:31;;;;;;;4.73;3.90;;;29.60;48.70;;;;;;4914355;29;20425;-73
2022/08/12 00:49:00;;;;;;;4.57;4.17;;;29.50;48.70;;;;;;4915518;29;20444;-73
2022/08/12 00:52:04;;;;;;;4.87;4.47;;;29.50;48.70;;;;;;4902401;29;20500;-73
2022/08/12 00:54:16;;;;;;;4.40;4.10;;;29.50;48.70;;;;;;4918783;29;20934;-73
2022/08/12 00:56:43;;;;;;;4.70;4.30;;;29.50;48.70;;;;;;4917841;29;20518;-74
2022/08/12 00:59:12;;;;;;;4.83;4.43;;;29.50;48.80;;;;;;4918513;29;20515;-73
2022/08/12 01:01:45;;;;;;;5.40;4.60;;;29.40;48.70;;;;;;4918457;29;20810;-73
2022/08/12 01:12:35;;;;;;;5.43;4.20;;;29.40;48.80;;;;;;4917551;29;20851;-73
2022/08/12 01:15:03;;;;;;;4.53;4.23;;;29.40;48.90;;;;;;4914317;29;20468;-73
2022/08/12 01:17:30;;;;;;;5.13;4.73;;;29.30;48.90;;;;;;4899697;29;20465;-73
2022/08/12 01:20:01;;;;;;;5.20;4.80;;;29.30;48.90;;;;;;4916842;29;20504;-73
2022/08/12 01:22:33;;;;;;;5.13;4.50;;;29.30;48.90;;;;;;4917507;29;20536;-73
2022/08/12 01:25:02;;;;;;;4.27;3.97;;;29.30;48.90;;;;;;4918463;29;20429;-72
2022/08/12 01:27:32;;;;;;;5.07;4.67;;;29.30;49.00;;;;;;4918565;29;20416;-73
2022/08/12 01:30:00;;;;;;;4.80;4.40;;;29.20;49.00;;;;;;4916941;29;20491;-73
2022/08/12 01:32:27;;;;;;;5.23;4.73;;;29.20;49.00;;;;;;4928555;29;20448;-73
2022/08/12 01:34:53;;;;;;;4.83;4.40;;;29.20;49.00;;;;;;4932786;29;20433;-73
2022/08/12 01:37:24;;;;;;;5.23;4.83;;;29.10;49.00;;;;;;4917106;29;20569;-73
2022/08/12 01:39:53;;;;;;;4.80;4.40;;;29.10;49.00;;;;;;4916379;29;21110;-73
2022/08/12 01:42:21;;;;;;;5.63;5.13;;;29.10;49.00;;;;;;4917005;29;20443;-73
2022/08/12 01:44:52;;;;;;;5.30;4.80;;;29.10;49.00;;;;;;4932420;29;20433;-73
2022/08/12 01:47:24;;;;;;;5.07;4.60;;;29.10;49.00;;;;;;4932537;29;20492;-73
2022/08/12 01:50:17;;;;;;;4.83;4.40;;;29.10;49.10;;;;;;4901681;29;20453;-73
2022/08/12 01:52:52;;;;;;;5.57;5.07;;;29.00;49.10;;;;;;4906545;29;20453;-72
2022/08/12 01:55:33;;;;;;;5.47;4.97;;;29.00;49.10;;;;;;4916809;29;20464;-72
2022/08/12 01:58:23;;;;;;;5.30;4.80;;;29.00;49.70;;;;;;4905519;29;20460;-73
2022/08/12 02:01:02;;;;;;;5.57;4.13;;;28.90;49.10;;;;;;4901548;29;20941;-72
2022/08/12 02:12:53;;;;;;;5.90;5.40;;;28.90;49.30;;;;;;4900493;29;20856;-73
2022/08/12 02:15:40;;;;;;;4.47;4.17;;;28.80;49.30;;;;;;4913218;29;20484;-73
2022/08/12 02:18:13;;;;;;;4.87;4.47;;;28.80;49.30;;;;;;4897335;29;20481;-73
2022/08/12 02:20:58;;;;;;;4.50;4.10;;;28.80;49.40;;;;;;4897638;29;20908;-73
2022/08/12 02:23:26;;;;;;;5.50;5.00;;;28.80;49.40;;;;;;4899882;29;20441;-72
2022/08/12 02:25:58;;;;;;;6.00;4.90;;;28.80;49.40;;;;;;4916559;29;20429;-73
2022/08/12 02:28:29;;;;;;;4.97;4.57;;;28.70;49.40;;;;;;4931193;29;20452;-73
2022/08/12 02:31:00;;;;;;;5.03;4.67;;;28.70;49.40;;;;;;4900486;29;20464;-73
2022/08/12 02:33:32;;;;;;;5.40;4.90;;;28.70;49.50;;;;;;4895216;29;21152;-72
2022/08/12 02:36:01;;;;;;;5.10;4.70;;;28.70;49.50;;;;;;4931838;29;20923;-72
2022/08/12 02:38:29;;;;;;;5.10;4.70;;;28.70;49.50;;;;;;4896974;29;20509;-73
2022/08/12 02:41:01;;;;;;;5.37;4.90;;;28.60;49.50;;;;;;4898106;29;20477;-73
2022/08/12 02:43:38;;;;;;;4.63;4.27;;;28.60;49.60;;;;;;4915143;29;20444;-74
2022/08/12 02:46:09;;;;;;;5.87;5.17;;;28.60;49.60;;;;;;4912787;29;20447;-73
2022/08/12 02:48:51;;;;;;;5.37;4.90;;;28.60;49.70;;;;;;4903627;29;20461;-73
2022/08/12 02:51:22;;;;;;;5.67;5.00;;;28.60;49.60;;;;;;4898829;29;20421;-74
2022/08/12 02:53:49;;;;;;;5.83;4.97;;;28.50;49.60;;;;;;4916528;29;20516;-73
2022/08/12 02:56:16;;;;;;;4.83;4.43;;;28.50;49.70;;;;;;4912301;29;20949;-73
2022/08/12 02:58:48;;;;;;;4.90;4.60;;;28.50;49.70;;;;;;4916506;29;20480;-73
2022/08/12 03:01:16;;;;;;;4.90;4.53;;;28.50;49.70;;;;;;4914816;29;20476;-73
2022/08/12 03:03:48;;;;;;;4.97;4.67;;;28.50;49.70;;;;;;4925909;29;20869;-73
2022/08/12 03:06:20;;;;;;;5.00;4.60;;;28.40;49.70;;;;;;4916226;29;20827;-73
2022/08/12 03:08:48;;;;;;;5.00;4.50;;;28.40;49.80;;;;;;4915032;29;20437;-74
2022/08/12 03:11:47;;;;;;;5.20;4.70;;;28.40;49.80;;;;;;4915012;29;20829;-73
2022/08/12 03:14:17;;;;;;;5.40;4.90;;;28.40;49.90;;;;;;4911322;29;20500;-73
2022/08/12 03:16:51;;;;;;;5.60;5.10;;;28.40;49.90;;;;;;4907090;29;20545;-74
2022/08/12 03:19:20;;;;;;;5.10;4.70;;;28.30;49.90;;;;;;4923365;29;20458;-73
2022/08/12 03:21:50;;;;;;;5.20;4.77;;;28.30;50.00;;;;;;4896286;29;20457;-73
2022/08/12 03:24:25;;;;;;;4.87;4.47;;;28.30;50.00;;;;;;4905754;29;20449;-73
2022/08/12 03:26:55;;;;;;;4.90;4.50;;;28.30;50.00;;;;;;4930168;29;21040;-73
2022/08/12 03:29:29;;;;;;;5.17;4.67;;;28.30;50.10;;;;;;4915026;29;20784;-73
2022/08/12 03:32:04;;;;;;;5.40;4.70;;;28.20;50.10;;;;;;4909759;29;20449;-73
2022/08/12 03:34:36;;;;;;;5.63;5.03;;;28.20;50.10;;;;;;4910731;29;20417;-73
2022/08/12 03:37:09;;;;;;;5.43;4.93;;;28.20;50.10;;;;;;4915896;29;20495;-73
2022/08/12 03:39:43;;;;;;;5.10;4.67;;;28.20;50.10;;;;;;4915614;29;20488;-73
2022/08/12 03:42:15;;;;;;;5.70;5.27;;;28.10;50.10;;;;;;4930502;29;20449;-73
2022/08/12 04:01:55;;;;;;;5.30;4.80;;;28.00;50.30;;;;;;4880559;29;20540;-74
2022/08/12 04:04:32;;;;;;;5.87;5.37;;;27.90;50.30;;;;;;4908970;29;20785;-73
2022/08/12 04:07:07;;;;;;;5.43;5.03;;;27.90;50.40;;;;;;4914724;29;20460;-73
2022/08/12 04:09:38;;;;;;;5.20;4.80;;;27.90;50.40;;;;;;4916928;29;20781;-73
2022/08/12 04:14:50;;;;;;;5.77;5.23;;;27.90;50.50;;;;;;4902532;29;20788;-73
2022/08/12 04:17:18;;;;;;;5.17;4.80;;;27.90;50.50;;;;;;4934249;29;20514;-72
2022/08/12 04:19:48;;;;;;;5.10;4.70;;;27.90;50.50;;;;;;4919274;29;20468;-73
2022/08/12 04:22:16;;;;;;;6.37;5.53;;;27.80;51.10;;;;;;4933930;29;20962;-73
2022/08/12 04:24:45;;;;;;;5.20;4.80;;;27.80;50.50;;;;;;4918295;29;20445;-73
2022/08/12 04:27:14;;;;;;;4.83;4.43;;;27.80;50.50;;;;;;4917830;29;20165;-73
2022/08/12 04:29:41;;;;;;;6.37;5.80;;;27.80;50.50;;;;;;4902522;29;20484;-73
2022/08/12 04:32:08;;;;;;;5.77;4.93;;;27.80;50.50;;;;;;4916817;29;20457;-73
2022/08/12 04:34:59;;;;;;;6.00;5.20;;;27.70;50.50;;;;;;4861514;29;20498;-73
2022/08/12 04:37:27;;;;;;;5.50;5.10;;;27.70;50.50;;;;;;4898381;29;20468;-73
2022/08/12 04:40:00;;;;;;;6.17;5.77;;;27.70;50.60;;;;;;4918344;29;20464;-73
2022/08/12 04:42:31;;;;;;;5.60;5.17;;;27.70;50.60;;;;;;4918813;29;20472;-73
2022/08/12 04:45:07;;;;;;;5.20;4.80;;;27.70;50.70;;;;;;4919738;29;20420;-73
2022/08/12 04:47:38;;;;;;;5.63;5.13;;;27.60;50.60;;;;;;4918072;29;20986;-73
2022/08/12 04:50:07;;;;;;;5.77;5.27;;;27.60;50.60;;;;;;4914792;29;20979;-73
2022/08/12 04:52:38;;;;;;;5.73;5.20;;;27.60;50.60;;;;;;4919635;29;21109;-73
2022/08/12 04:55:09;;;;;;;5.67;5.07;;;27.60;50.70;;;;;;4906844;29;20487;-73
2022/08/12 04:57:40;;;;;;;5.67;5.27;;;27.60;50.70;;;;;;4919360;29;20432;-73
2022/08/12 05:00:13;;;;;;;5.83;5.40;;;27.50;50.60;;;;;;4918010;29;20472;-73
2022/08/12 05:02:44;;;;;;;5.67;5.13;;;27.50;50.70;;;;;;4933917;29;20440;-73
2022/08/12 05:05:25;;;;;;;5.53;5.10;;;27.50;50.70;;;;;;4918501;29;20420;-73
2022/08/12 05:07:52;;;;;;;5.80;5.33;;;27.50;50.70;;;;;;4914939;29;20434;-73
2022/08/12 05:10:21;;;;;;;5.83;5.33;;;27.50;50.80;;;;;;4922964;29;21041;-73
2022/08/12 05:12:53;;;;;;;5.30;4.90;;;27.40;50.70;;;;;;4899366;29;20465;-73
2022/08/12 05:15:25;;;;;;;5.80;5.40;;;27.40;50.80;;;;;;4899591;29;20421;-73
2022/08/12 05:17:51;;;;;;;5.80;5.33;;;27.40;50.80;;;;;;4899587;29;20414;-73
2022/08/12 05:20:20;;;;;;;5.77;5.23;;;27.40;50.80;;;;;;4914802;29;20421;-73
2022/08/12 05:22:50;;;;;;;5.43;4.93;;;27.40;50.80;;;;;;4918184;29;20532;-73
2022/08/12 05:25:16;;;;;;;5.77;5.23;;;27.40;50.90;;;;;;4933963;29;20772;-73
2022/08/12 05:27:44;;;;;;;5.40;4.77;;;27.30;50.90;;;;;;4933496;29;20421;-73
2022/08/12 05:30:11;;;;;;;5.30;4.83;;;27.30;50.90;;;;;;4919191;29;20493;-73
2022/08/12 05:32:37;;;;;;;7.10;5.27;;;27.30;50.90;;;;;;4914803;29;21111;-73
2022/08/12 05:35:05;;;;;;;5.50;5.10;;;27.30;51.00;;;;;;4916709;29;20887;-73
2022/08/12 05:37:38;;;;;;;5.53;5.03;;;27.30;51.00;;;;;;4919057;29;20432;-73
2022/08/12 05:40:10;;;;;;;7.70;5.37;;;27.30;51.10;;;;;;4917372;29;20519;-73
2022/08/12 05:42:38;;;;;;;5.30;4.77;;;27.30;51.10;;;;;;4905894;29;20472;-73
2022/08/12 05:45:09;;;;;;;4.90;4.57;;;27.30;51.20;;;;;;4914285;29;20498;-73
2022/08/12 05:47:37;;;;;;;5.60;5.20;;;27.30;51.20;;;;;;4883400;29;20925;-73
2022/08/12 05:50:04;;;;;;;7.93;5.47;;;27.20;51.30;;;;;;4914789;29;20939;-73
2022/08/12 05:52:33;;;;;;;5.10;4.70;;;27.20;51.30;;;;;;4901841;29;20465;-73
2022/08/12 05:54:59;;;;;;;6.77;6.17;;;27.20;51.30;;;;;;4933304;29;20508;-73
2022/08/12 05:57:28;;;;;;;5.70;5.20;;;27.20;51.30;;;;;;4932724;29;20802;-71
2022/08/12 05:59:56;;;;;;;5.70;5.10;;;27.20;51.40;;;;;;4933046;29;20475;-73
2022/08/12 06:02:27;;;;;;;4.97;4.57;;;27.20;51.40;;;;;;4916845;29;20456;-74
2022/08/12 06:04:53;;;;;;;7.93;4.80;;;27.20;51.50;;;;;;4932819;29;20966;-74
2022/08/12 06:07:23;;;;;;;5.80;5.30;;;27.10;51.50;;;;;;4917263;29;20417;-73
2022/08/12 06:09:49;;;;;;;5.50;5.10;;;27.10;51.50;;;;;;4917262;29;20823;-72
2022/08/12 06:12:22;;;;;;;5.43;5.03;;;27.10;51.50;;;;;;4916360;29;20472;-72
2022/08/12 06:14:48;;;;;;;6.13;5.00;;;27.10;51.60;;;;;;4917185;29;20630;-72
2022/08/12 06:17:17;;;;;;;5.57;5.10;;;27.10;51.60;;;;;;4917020;29;20437;-73
2022/08/12 06:19:57;;;;;;;5.40;5.00;;;27.10;51.60;;;;;;4929415;29;21015;-73
2022/08/12 06:22:25;;;;;;;6.20;5.60;;;27.10;51.60;;;;;;4915907;29;20479;-73
2022/08/12 06:24:52;;;;;;;5.07;4.67;;;27.00;51.60;;;;;;4916478;29;20432;-73
2022/08/12 06:27:19;;;;;;;5.53;5.03;;;27.10;51.70;;;;;;4916899;29;20432;-73
2022/08/12 06:29:46;;;;;;;5.47;4.53;;;27.00;51.70;;;;;;4916268;29;20421;-73
2022/08/12 06:32:15;;;;;;;5.73;5.23;;;27.00;51.70;;;;;;4915044;29;20457;-73
2022/08/12 06:34:45;;;;;;;5.93;5.30;;;27.00;51.70;;;;;;4915717;29;20440;-73
2022/08/12 06:37:15;;;;;;;5.43;4.93;;;27.00;51.70;;;;;;4916913;29;20441;-73
2022/08/12 06:39:43;;;;;;;5.40;4.80;;;27.00;51.70;;;;;;4915737;29;20464;-73
2022/08/12 06:44:54;;;;;;;4.83;4.50;;;27.00;51.70;;;;;;4916735;29;20914;-72
2022/08/12 06:47:48;;;;;;;5.50;5.00;;;27.00;51.70;;;;;;4927865;29;20463;-72
2022/08/12 06:50:15;;;;;;;5.90;5.40;;;27.00;51.70;;;;;;4916746;29;20945;-72
2022/08/12 06:53:08;;;;;;;4.83;4.47;;;27.00;51.70;;;;;;4894158;29;20549;-73
2022/08/12 06:55:35;;;;;;;5.03;4.63;;;27.00;51.70;;;;;;4909977;29;20530;-73
2022/08/12 06:58:04;;;;;;;8.50;5.47;;;27.00;51.70;;;;;;4916213;29;20436;-72
2022/08/12 07:00:32;;;;;;;5.53;4.97;;;27.00;51.80;;;;;;4915520;29;20495;-73
2022/08/12 07:03:04;;;;;;;5.40;5.00;;;27.00;51.80;;;;;;4910896;29;20933;-73
2022/08/12 07:06:03;;;;;;;5.77;5.27;;;27.00;51.70;;;;;;4908965;29;20872;-73
2022/08/12 07:08:31;;;;;;;5.40;4.90;;;27.00;51.70;;;;;;4915696;29;20472;-73
2022/08/12 07:11:00;;;;;;;4.30;4.00;;;27.00;51.80;;;;;;4915233;29;20413;-73
2022/08/12 07:13:26;;;;;;;5.03;4.63;;;27.00;51.80;;;;;;4915718;29;20468;-73
2022/08/12 07:15:55;;;;;;;5.03;4.63;;;27.00;51.80;;;;;;4914787;29;20436;-73
2022/08/12 07:18:26;;;;;;;5.17;4.67;;;27.00;51.70;;;;;;4899015;29;20544;-73
2022/08/12 07:20:55;;;;;;;5.33;4.80;;;27.00;51.70;;;;;;4915914;29;20918;-72
2022/08/12 07:23:21;;;;;;;4.80;4.40;;;27.00;51.70;;;;;;4930717;29;20470;-73
2022/08/12 07:25:47;;;;;;;5.20;4.80;;;27.00;52.30;;;;;;4916250;29;20492;-73
2022/08/12 07:28:19;;;;;;;4.83;4.23;;;27.00;51.60;;;;;;4915731;29;21031;-73
2022/08/12 07:30:49;;;;;;;4.37;4.07;;;27.00;51.60;;;;;;4914310;29;20934;-73
2022/08/12 07:33:21;;;;;;;4.43;4.10;;;27.00;51.60;;;;;;4927299;29;20476;-73
2022/08/12 07:35:53;;;;;;;4.93;4.53;;;27.00;51.60;;;;;;4914246;29;20640;-73
2022/08/12 07:38:26;;;;;;;5.17;4.67;;;27.00;51.60;;;;;;4913966;29;21067;-73
2022/08/12 07:41:02;;;;;;;5.53;4.40;;;27.00;51.60;;;;;;4911270;29;20420;-73
2022/08/12 07:43:35;;;;;;;4.80;4.40;;;27.10;51.70;;;;;;4920204;29;20496;-73
2022/08/12 07:46:04;;;;;;;4.83;4.43;;;27.10;51.70;;;;;;4929707;29;21178;-73
2022/08/12 07:48:42;;;;;;;5.30;4.80;;;27.00;51.70;;;;;;4914201;29;20409;-73
2022/08/12 07:51:27;;;;;;;6.93;5.00;;;27.10;51.70;;;;;;4913944;29;20452;-73
2022/08/12 07:53:57;;;;;;;5.03;4.50;;;27.10;51.80;;;;;;4929892;29;20529;-73
2022/08/12 07:56:29;;;;;;;5.00;4.23;;;27.10;51.80;;;;;;4915208;29;20435;-73
2022/08/12 07:58:57;;;;;;;4.83;4.30;;;27.10;51.80;;;;;;4904142;29;20461;-73
2022/08/12 08:01:29;;;;;;;4.87;4.23;;;27.10;51.80;;;;;;4915580;29;20460;-73
2022/08/12 08:06:46;;;;;;;5.17;4.77;;;27.20;51.80;;;;;;4914669;29;20413;-73
2022/08/12 08:09:17;;;;;;;4.50;4.20;;;27.20;51.70;;;;;;4930102;29;20421;-73
2022/08/12 08:14:27;;;;;;;4.77;4.37;;;27.20;51.70;;;;;;4915724;29;20749;-73
2022/08/12 08:16:56;;;;;;;5.30;4.00;;;27.20;51.70;;;;;;4930225;29;20420;-73
2022/08/12 08:19:28;;;;;;;4.60;4.20;;;27.20;51.70;;;;;;4914553;29;20449;-73
2022/08/12 08:21:59;;;;;;;5.33;4.63;;;27.30;51.70;;;;;;4930116;29;20464;-73
2022/08/12 08:24:29;;;;;;;5.10;4.70;;;27.30;51.70;;;;;;4915486;29;20425;-73
2022/08/12 08:26:57;;;;;;;4.73;4.33;;;27.20;51.60;;;;;;4930026;29;20786;-73
2022/08/12 08:29:23;;;;;;;4.77;4.37;;;27.30;51.60;;;;;;4915406;29;20425;-73
2022/08/12 08:31:57;;;;;;;4.53;4.23;;;27.30;51.60;;;;;;4930212;29;20451;-73
2022/08/12 08:34:28;;;;;;;4.60;4.20;;;27.30;51.60;;;;;;4913848;29;20489;-73
2022/08/12 08:36:54;;;;;;;4.40;4.10;;;27.30;51.50;;;;;;4908946;29;20851;-73
2022/08/12 08:39:26;;;;;;;5.53;4.93;;;27.30;51.50;;;;;;4929537;29;21077;-73
2022/08/12 08:44:38;;;;;;;6.10;4.50;;;27.40;51.40;;;;;;4915352;29;20532;-73
2022/08/12 08:47:09;;;;;;;4.27;3.97;;;27.40;51.40;;;;;;4915423;29;20451;-73
2022/08/12 08:49:36;;;;;;;4.60;4.20;;;27.40;51.30;;;;;;4929823;29;20817;-73
2022/08/12 08:52:09;;;;;;;4.20;3.90;;;27.40;51.30;;;;;;4915192;29;20828;-73
2022/08/12 08:54:39;;;;;;;4.30;3.73;;;27.40;51.20;;;;;;4915998;29;20970;-73
2022/08/12 08:57:07;;;;;;;4.87;4.47;;;27.50;51.20;;;;;;4919117;29;20404;-73
2022/08/12 08:59:33;;;;;;;5.63;4.27;;;27.50;51.20;;;;;;4918688;29;20463;-74
2022/08/12 09:02:05;;;;;;;5.80;4.27;;;27.50;51.10;;;;;;4918340;29;20450;-73
2022/08/12 09:04:44;;;;;;;4.20;3.90;;;27.60;51.20;;;;;;4918594;29;20476;-73
2022/08/12 09:07:15;;;;;;;4.37;3.73;;;27.60;51.10;;;;;;4918898;29;20432;-73
2022/08/12 09:09:41;;;;;;;4.73;4.33;;;27.60;51.00;;;;;;4918296;29;20473;-73
2022/08/12 09:14:55;;;;;;;3.97;3.67;;;27.70;50.90;;;;;;4918201;29;20424;-74
2022/08/12 09:17:24;;;;;;;3.93;3.63;;;27.70;50.50;;;;;;4918606;29;20962;-73
2022/08/12 09:19:53;;;;;;;4.50;3.50;;;27.80;50.50;;;;;;4901879;29;20465;-73
2022/08/12 09:22:22;;;;;;;4.60;4.30;;;27.80;50.40;;;;;;4918546;29;20499;-73
2022/08/12 09:24:48;;;;;;;4.13;3.60;;;27.90;50.40;;;;;;4918160;29;20492;-73
2022/08/12 09:27:17;;;;;;;4.80;4.10;;;27.90;50.30;;;;;;4932914;29;20424;-73
2022/08/12 09:29:47;;;;;;;4.73;4.17;;;27.90;50.10;;;;;;4901205;29;20485;-72
2022/08/12 09:32:17;;;;;;;3.80;3.60;;;28.00;50.10;;;;;;4917040;29;20969;-73
2022/08/12 09:34:44;;;;;;;4.00;3.67;;;28.00;50.00;;;;;;4925584;29;20481;-74
2022/08/12 09:37:12;;;;;;;4.30;4.00;;;28.00;49.90;;;;;;4909713;29;20433;-74
2022/08/12 09:39:39;;;;;;;4.37;4.07;;;28.00;49.70;;;;;;4907017;29;20512;-74
2022/08/12 09:47:36;;;;;;;4.00;3.70;;;28.20;49.40;;;;;;4916982;29;20540;-74
2022/08/12 09:50:04;;;;;;;4.27;3.87;;;28.20;49.50;;;;;;4917666;29;20409;-74
2022/08/12 09:52:30;;;;;;;4.33;3.80;;;28.20;49.60;;;;;;4917427;29;20456;-74
2022/08/12 09:55:01;;;;;;;3.83;3.43;;;28.30;49.20;;;;;;4916267;29;20437;-74
2022/08/12 09:57:29;;;;;;;4.63;4.23;;;28.30;49.10;;;;;;4917496;29;20429;-74
2022/08/12 09:59:58;;;;;;;4.23;3.93;;;28.30;49.10;;;;;;4917480;29;20511;-74
2022/08/12 10:02:25;;;;;;;4.03;3.73;;;28.40;49.10;;;;;;4931809;29;21026;-74
2022/08/12 10:04:56;;;;;;;3.70;3.40;;;28.40;48.80;;;;;;4900267;29;20457;-74
2022/08/12 10:07:25;;;;;;;4.20;3.90;;;28.40;48.80;;;;;;4914955;29;20404;-74
2022/08/12 10:09:51;;;;;;;3.43;3.13;;;28.50;48.90;;;;;;4917365;29;20435;-74
2022/08/12 10:15:01;;;;;;;4.30;3.90;;;28.60;48.80;;;;;;4908814;29;20847;-74
2022/08/12 10:17:30;;;;;;;4.50;4.10;;;28.60;48.70;;;;;;4915888;29;20947;-74
2022/08/12 10:19:58;;;;;;;4.07;3.77;;;28.60;48.70;;;;;;4916879;29;21005;-74
2022/08/12 10:22:24;;;;;;;4.67;4.27;;;28.70;48.60;;;;;;4931617;29;21011;-74
2022/08/12 10:30:22;;;;;;;4.50;4.10;;;28.80;48.40;;;;;;4901475;29;20437;-74
2022/08/12 10:33:01;;;;;;;4.33;3.93;;;28.80;48.20;;;;;;4914577;29;20524;-74
2022/08/12 10:35:31;;;;;;;4.23;3.93;;;28.90;48.20;;;;;;4902676;29;20437;-74
2022/08/12 10:38:01;;;;;;;4.40;4.10;;;28.90;48.10;;;;;;4914897;29;20434;-74
2022/08/12 10:40:31;;;;;;;3.73;3.43;;;28.90;48.00;;;;;;4900634;29;20548;-74
2022/08/12 10:45:47;;;;;;;4.33;3.93;;;29.00;48.00;;;;;;4915633;29;20444;-74
2022/08/12 10:48:13;;;;;;;3.90;3.70;;;29.10;47.60;;;;;;4916382;29;20508;-74
2022/08/12 10:50:42;;;;;;;4.07;3.77;;;29.10;47.60;;;;;;4916339;29;20548;-74
2022/08/12 10:53:11;;;;;;;5.97;3.63;;;29.10;47.40;;;;;;4931176;29;21010;-74
2022/08/12 10:55:37;;;;;;;4.37;3.93;;;29.20;47.40;;;;;;4916437;29;20422;-75
2022/08/12 10:58:06;;;;;;;4.67;4.27;;;29.20;47.40;;;;;;4930617;29;20401;-73
2022/08/12 11:00:33;;;;;;;4.37;3.90;;;29.20;47.30;;;;;;4916391;29;20421;-73
2022/08/12 11:02:59;;;;;;;3.73;3.43;;;29.30;47.00;;;;;;4916320;29;20523;-73
2022/08/12 11:05:25;;;;;;;4.10;3.80;;;29.30;46.90;;;;;;4916778;29;20519;-74
2022/08/12 11:07:51;;;;;;;4.50;3.50;;;29.30;46.90;;;;;;4915188;29;20825;-72
2022/08/12 11:10:17;;;;;;;3.93;3.63;;;29.40;46.80;;;;;;4916687;29;20449;-74
2022/08/12 11:12:47;;;;;;;4.03;3.73;;;29.40;46.70;;;;;;4916552;29;20512;-71
2022/08/12 11:15:13;;;;;;;4.50;4.10;;;29.40;46.80;;;;;;4916732;29;20821;-73
2022/08/12 11:17:40;;;;;;;4.50;4.10;;;29.50;46.80;;;;;;4930715;29;20859;-73
2022/08/12 11:20:10;;;;;;;4.70;4.30;;;29.50;46.80;;;;;;4916913;29;20448;-73
2022/08/12 11:22:39;;;;;;;5.63;4.10;;;29.50;46.70;;;;;;4931143;29;20453;-73
2022/08/12 11:25:09;;;;;;;3.63;3.43;;;29.60;46.70;;;;;;4916202;29;20480;-74
2022/08/12 11:27:35;;;;;;;3.60;3.40;;;29.60;46.80;;;;;;4913807;29;20445;-74
2022/08/12 11:30:01;;;;;;;4.10;3.60;;;29.60;46.70;;;;;;4899686;29;20431;-74
2022/08/12 11:32:29;;;;;;;4.80;4.00;;;29.70;46.70;;;;;;4912874;29;20464;-74
2022/08/12 11:35:00;;;;;;;4.10;3.70;;;29.70;46.70;;;;;;4914056;29;20447;-74
2022/08/12 11:37:26;;;;;;;4.60;4.20;;;29.80;46.60;;;;;;4928891;29;20436;-74
2022/08/12 11:39:55;;;;;;;3.70;3.40;;;29.80;46.60;;;;;;4926537;29;20523;-74
2022/08/12 11:42:24;;;;;;;4.33;4.03;;;29.80;46.50;;;;;;4913987;29;20487;-74
2022/08/12 11:44:50;;;;;;;4.37;4.00;;;29.90;46.20;;;;;;4913676;29;20437;-73
2022/08/12 11:47:18;;;;;;;4.13;3.83;;;29.90;46.10;;;;;;4928407;29;20500;-74
2022/08/12 11:49:44;;;;;;;3.77;3.47;;;29.90;45.90;;;;;;4913231;29;20433;-74
2022/08/12 11:52:10;;;;;;;3.93;3.53;;;30.00;46.10;;;;;;4909449;29;20524;-75
2022/08/12 11:54:36;;;;;;;4.27;3.87;;;30.00;46.00;;;;;;4901546;29;20437;-76
2022/08/12 11:57:02;;;;;;;4.40;4.00;;;30.00;46.00;;;;;;4908270;29;20425;-74
2022/08/12 11:59:31;;;;;;;4.20;3.90;;;30.10;46.00;;;;;;4911591;29;20993;-74
2022/08/12 12:01:57;;;;;;;3.43;3.13;;;30.10;46.00;;;;;;4913682;29;20496;-74
2022/08/12 12:04:23;;;;;;;5.53;3.87;;;30.10;46.00;;;;;;4886620;29;20441;-74
2022/08/12 12:06:52;;;;;;;4.20;3.90;;;30.10;46.00;;;;;;4903150;29;20487;-74
2022/08/12 12:09:18;;;;;;;3.87;3.53;;;30.20;46.00;;;;;;4928721;29;20444;-74
2022/08/12 12:11:47;;;;;;;4.50;4.20;;;30.20;45.90;;;;;;4907905;29;20473;-74
2022/08/12 12:14:13;;;;;;;3.97;3.67;;;30.20;45.90;;;;;;4901892;29;20454;-74
2022/08/12 12:16:39;;;;;;;3.80;3.50;;;30.30;45.80;;;;;;4904010;29;20447;-74
2022/08/12 12:19:08;;;;;;;4.07;3.77;;;30.30;45.80;;;;;;4915526;29;20535;-74
2022/08/12 12:21:34;;;;;;;3.80;3.50;;;30.30;45.80;;;;;;4915457;29;20453;-74
2022/08/12 12:24:00;;;;;;;4.33;4.03;;;30.30;45.80;;;;;;4915522;29;20565;-74
2022/08/12 12:26:29;;;;;;;3.50;3.30;;;30.40;45.80;;;;;;4915480;29;20460;-74
2022/08/12 12:28:57;;;;;;;3.83;3.53;;;30.40;45.70;;;;;;4914560;29;20516;-74
2022/08/12 12:31:39;;;;;;;3.90;3.60;;;30.40;45.70;;;;;;4932172;29;20440;-74
2022/08/12 12:34:07;;;;;;;3.83;3.53;;;30.40;45.50;;;;;;4918977;29;20511;-74
2022/08/12 12:36:38;;;;;;;3.77;3.47;;;30.50;45.60;;;;;;4932595;29;20984;-74
2022/08/12 12:41:57;;;;;;;4.20;3.60;;;30.60;45.50;;;;;;4905626;29;20502;-68
2022/08/12 12:44:23;;;;;;;3.80;3.50;;;30.60;45.50;;;;;;4918864;29;20961;-68
2022/08/12 12:46:52;;;;;;;4.20;3.80;;;30.60;45.40;;;;;;4916777;29;20446;-69
2022/08/12 12:49:18;;;;;;;3.77;3.50;;;30.70;45.40;;;;;;4933429;29;20448;-68
2022/08/12 12:51:49;;;;;;;3.60;3.40;;;30.70;45.30;;;;;;4917233;29;20455;-69
2022/08/12 12:54:18;;;;;;;4.47;3.83;;;30.70;45.40;;;;;;4918465;29;20439;-69
2022/08/12 12:56:48;;;;;;;4.10;3.80;;;30.70;45.30;;;;;;4917263;29;20421;-68
2022/08/12 12:59:17;;;;;;;4.00;3.80;;;30.70;45.10;;;;;;4901685;29;20256;-69
2022/08/12 13:01:43;;;;;;;3.83;3.43;;;30.80;45.10;;;;;;4916927;29;20812;-69
2022/08/12 13:04:15;;;;;;;3.83;3.63;;;30.80;45.10;;;;;;4917474;29;20417;-69
2022/08/12 13:06:41;;;;;;;4.40;4.10;;;30.80;44.90;;;;;;4916691;29;20455;-69
2022/08/12 13:09:08;;;;;;;6.23;3.80;;;30.90;44.70;;;;;;4932903;29;20926;-68
2022/08/12 13:11:38;;;;;;;3.70;3.37;;;30.90;44.50;;;;;;4918424;29;20836;-70
2022/08/12 13:14:07;;;;;;;3.80;3.50;;;30.90;44.50;;;;;;4918022;29;20441;-69
2022/08/12 13:16:39;;;;;;;3.47;3.17;;;31.00;44.50;;;;;;4918205;29;20439;-69
2022/08/12 13:19:08;;;;;;;3.73;3.43;;;31.00;44.40;;;;;;4916654;29;21066;-69
2022/08/12 13:22:14;;;;;;;3.50;3.27;;;31.00;44.50;;;;;;4917967;29;20528;-68
2022/08/12 13:24:25;;;;;;;4.27;3.90;;;31.00;44.60;;;;;;4916904;29;20977;-69
2022/08/12 13:26:53;;;;;;;4.43;4.13;;;31.10;44.60;;;;;;4916674;29;20428;-69
2022/08/12 13:29:22;;;;;;;3.93;3.63;;;31.10;44.50;;;;;;4932537;29;20421;-69
2022/08/12 13:31:56;;;;;;;4.00;3.70;;;31.10;44.50;;;;;;4917912;29;20452;-70
2022/08/12 13:34:23;;;;;;;3.80;3.50;;;31.20;44.50;;;;;;4932664;29;20471;-69
2022/08/12 13:36:51;;;;;;;3.83;3.53;;;31.20;44.50;;;;;;4916706;29;20420;-68
2022/08/12 13:39:20;;;;;;;4.10;3.70;;;31.20;44.50;;;;;;4912889;29;20460;-69
2022/08/12 13:41:46;;;;;;;3.70;3.50;;;31.20;44.40;;;;;;4900761;29;20472;-69
2022/08/12 13:44:14;;;;;;;4.10;3.80;;;31.30;44.40;;;;;;4896659;29;20429;-68
2022/08/12 13:46:40;;;;;;;4.43;4.03;;;31.30;44.40;;;;;;4915544;29;20524;-69
2022/08/12 13:49:12;;;;;;;4.30;3.90;;;31.40;44.40;;;;;;4913917;29;20421;-68
2022/08/12 13:51:41;;;;;;;3.70;3.40;;;31.40;44.20;;;;;;4914909;29;20508;-69
2022/08/12 13:54:10;;;;;;;3.47;3.27;;;31.40;43.90;;;;;;4915978;29;20413;-69
2022/08/12 13:56:38;;;;;;;4.17;3.87;;;31.40;43.60;;;;;;4914127;29;20433;-68
2022/08/12 13:59:08;;;;;;;3.63;3.33;;;31.50;43.60;;;;;;4915294;29;20880;-69
2022/08/12 14:01:36;;;;;;;3.50;3.30;;;31.50;43.60;;;;;;4914104;29;20464;-69
2022/08/12 14:04:05;;;;;;;3.47;3.20;;;31.50;43.70;;;;;;4903804;29;20438;-69
2022/08/12 14:06:34;;;;;;;3.77;3.47;;;31.60;43.70;;;;;;4912722;29;20860;-68
2022/08/12 14:09:01;;;;;;;4.23;3.70;;;31.60;43.70;;;;;;4910738;29;20476;-69
2022/08/12 14:11:30;;;;;;;3.97;3.70;;;31.60;43.80;;;;;;4910947;29;20951;-69
2022/08/12 14:13:58;;;;;;;4.00;3.70;;;31.70;43.60;;;;;;4914475;29;20436;-69
2022/08/12 14:16:28;;;;;;;3.27;2.97;;;31.70;43.50;;;;;;4913610;29;20480;-69
2022/08/12 14:18:54;;;;;;;3.53;3.30;;;31.70;43.40;;;;;;4914912;29;20460;-68
2022/08/12 14:21:20;;;;;;;3.40;3.10;;;31.80;43.40;;;;;;4914163;29;20425;-70
2022/08/12 14:23:52;;;;;;;3.70;3.40;;;31.80;43.50;;;;;;4915336;29;20436;-68
2022/08/12 14:26:23;;;;;;;3.30;3.10;;;31.80;43.60;;;;;;4915193;29;20519;-67
2022/08/12 14:28:55;;;;;;;3.70;3.40;;;31.90;43.60;;;;;;4916034;29;20934;-69
2022/08/12 14:31:23;;;;;;;3.70;3.30;;;31.90;43.60;;;;;;4929803;29;20413;-69
2022/08/12 14:33:51;;;;;;;3.20;3.00;;;31.90;43.50;;;;;;4912469;29;20444;-69
2022/08/12 14:36:25;;;;;;;5.37;3.17;;;32.00;43.50;;;;;;4912376;29;20944;-69
2022/08/12 14:38:54;;;;;;;5.00;3.23;;;32.00;43.40;;;;;;4916262;29;20479;-69
2022/08/12 14:41:27;;;;;;;3.10;2.90;;;32.10;43.40;;;;;;4916331;29;20464;-68
2022/08/12 14:43:53;;;;;;;3.27;3.07;;;32.00;43.20;;;;;;4915853;29;20429;-69
2022/08/12 14:46:23;;;;;;;3.73;3.00;;;32.10;43.20;;;;;;4917115;29;20409;-68
2022/08/12 14:48:51;;;;;;;3.50;3.20;;;32.10;43.10;;;;;;4916809;29;20401;-67
2022/08/12 14:51:22;;;;;;;3.10;2.90;;;32.10;43.00;;;;;;4916806;29;20496;-68
2022/08/12 14:53:49;;;;;;;7.07;3.30;;;32.20;43.00;;;;;;4896152;29;20460;-69
2022/08/12 14:56:21;;;;;;;3.37;3.00;;;32.20;42.80;;;;;;4912320;29;20418;-70